Terminal Aerodrome Forecast
Issued by NWS

Home | Current Version | Previous Version | Graphics & Text | Print | Product List | Glossary On
Versions: 1 2 3 4 5 6 7 8 9 10 11 12 13 14 15 16 17 18 19 20 21 22 23 24
000
FTUS43 KTOP 171100
TAFMHK
TAF
KMHK 171130Z 1712/1812 18004KT 3SM BR BKN009
     FM171500 13005KT 6SM BR BKN012
     FM171800 16005KT P6SM SCT015
     FM180600 09005KT 4SM BR SCT015 SCT150=

USA.gov is the U.S. government's official web portal to all federal, state and local government web resources and services.